sensor_id;sensor_type;location;lat;lon;timestamp;P1;durP1;ratioP1;P2;durP2;ratioP2
13683;SDS011;6914;53.552;9.908;2022-10-16T00:01:26;16.17;;;10.57;;
13683;SDS011;6914;53.552;9.908;2022-10-16T00:03:54;12.60;;;10.23;;
13683;SDS011;6914;53.552;9.908;2022-10-16T00:06:21;17.00;;;9.57;;
13683;SDS011;6914;53.552;9.908;2022-10-16T00:08:50;13.47;;;11.00;;
13683;SDS011;6914;53.552;9.908;2022-10-16T00:11:19;14.70;;;10.27;;
13683;SDS011;6914;53.552;9.908;2022-10-16T00:13:48;10.13;;;8.00;;
13683;SDS011;6914;53.552;9.908;2022-10-16T00:16:16;8.47;;;7.67;;
13683;SDS011;6914;53.552;9.908;2022-10-16T00:18:44;8.10;;;7.37;;
13683;SDS011;6914;53.552;9.908;2022-10-16T00:21:12;8.73;;;6.60;;
13683;SDS011;6914;53.552;9.908;2022-10-16T00:23:41;6.60;;;6.00;;
13683;SDS011;6914;53.552;9.908;2022-10-16T00:26:10;6.50;;;6.10;;
13683;SDS011;6914;53.552;9.908;2022-10-16T00:28:40;9.00;;;5.53;;
13683;SDS011;6914;53.552;9.908;2022-10-16T00:31:08;11.30;;;6.23;;
13683;SDS011;6914;53.552;9.908;2022-10-16T00:33:36;9.23;;;5.50;;
13683;SDS011;6914;53.552;9.908;2022-10-16T00:36:05;5.23;;;4.93;;
13683;SDS011;6914;53.552;9.908;2022-10-16T00:38:34;13.93;;;5.80;;
13683;SDS011;6914;53.552;9.908;2022-10-16T00:41:02;4.37;;;4.10;;
13683;SDS011;6914;53.552;9.908;2022-10-16T00:43:33;10.30;;;5.30;;
13683;SDS011;6914;53.552;9.908;2022-10-16T00:46:05;14.33;;;4.20;;
13683;SDS011;6914;53.552;9.908;2022-10-16T00:48:36;14.63;;;4.57;;
13683;SDS011;6914;53.552;9.908;2022-10-16T00:51:04;10.63;;;4.50;;
13683;SDS011;6914;53.552;9.908;2022-10-16T00:53:33;4.77;;;4.17;;
13683;SDS011;6914;53.552;9.908;2022-10-16T00:56:00;6.30;;;4.40;;
13683;SDS011;6914;53.552;9.908;2022-10-16T00:58:28;8.73;;;3.53;;
13683;SDS011;6914;53.552;9.908;2022-10-16T01:00:55;5.77;;;3.27;;
13683;SDS011;6914;53.552;9.908;2022-10-16T01:03:24;7.03;;;3.60;;
13683;SDS011;6914;53.552;9.908;2022-10-16T01:05:55;11.00;;;3.50;;
13683;SDS011;6914;53.552;9.908;2022-10-16T01:08:33;9.53;;;3.10;;
13683;SDS011;6914;53.552;9.908;2022-10-16T01:11:09;3.33;;;3.00;;
13683;SDS011;6914;53.552;9.908;2022-10-16T01:13:45;6.70;;;3.10;;
13683;SDS011;6914;53.552;9.908;2022-10-16T01:16:18;4.57;;;2.80;;
13683;SDS011;6914;53.552;9.908;2022-10-16T01:18:57;3.77;;;3.03;;
13683;SDS011;6914;53.552;9.908;2022-10-16T01:21:29;6.27;;;2.83;;
13683;SDS011;6914;53.552;9.908;2022-10-16T01:24:00;5.80;;;3.17;;
13683;SDS011;6914;53.552;9.908;2022-10-16T01:26:36;9.53;;;3.00;;
13683;SDS011;6914;53.552;9.908;2022-10-16T01:29:15;3.47;;;2.80;;
13683;SDS011;6914;53.552;9.908;2022-10-16T01:31:47;4.90;;;2.80;;
13683;SDS011;6914;53.552;9.908;2022-10-16T01:34:18;9.00;;;2.73;;
13683;SDS011;6914;53.552;9.908;2022-10-16T01:36:49;2.67;;;2.57;;
13683;SDS011;6914;53.552;9.908;2022-10-16T01:39:20;6.00;;;3.10;;
13683;SDS011;6914;53.552;9.908;2022-10-16T01:41:51;5.80;;;2.67;;
13683;SDS011;6914;53.552;9.908;2022-10-16T01:44:25;3.50;;;1.93;;
13683;SDS011;6914;53.552;9.908;2022-10-16T01:46:55;7.60;;;2.70;;
13683;SDS011;6914;53.552;9.908;2022-10-16T01:49:24;2.70;;;2.50;;
13683;SDS011;6914;53.552;9.908;2022-10-16T01:51:55;5.83;;;2.57;;
13683;SDS011;6914;53.552;9.908;2022-10-16T01:54:25;4.40;;;3.03;;
13683;SDS011;6914;53.552;9.908;2022-10-16T01:56:55;9.60;;;2.67;;
13683;SDS011;6914;53.552;9.908;2022-10-16T01:59:25;3.10;;;2.20;;
13683;SDS011;6914;53.552;9.908;2022-10-16T02:01:55;2.70;;;2.50;;
13683;SDS011;6914;53.552;9.908;2022-10-16T02:04:27;5.67;;;2.90;;
13683;SDS011;6914;53.552;9.908;2022-10-16T02:06:57;2.90;;;2.80;;
13683;SDS011;6914;53.552;9.908;2022-10-16T02:09:24;3.53;;;2.60;;
13683;SDS011;6914;53.552;9.908;2022-10-16T02:11:52;9.70;;;3.30;;
13683;SDS011;6914;53.552;9.908;2022-10-16T02:14:21;2.47;;;2.27;;
13683;SDS011;6914;53.552;9.908;2022-10-16T02:16:51;5.43;;;3.13;;
13683;SDS011;6914;53.552;9.908;2022-10-16T02:19:18;3.43;;;2.90;;
13683;SDS011;6914;53.552;9.908;2022-10-16T02:21:49;2.60;;;2.40;;
13683;SDS011;6914;53.552;9.908;2022-10-16T02:24:24;2.00;;;1.87;;
13683;SDS011;6914;53.552;9.908;2022-10-16T02:26:57;2.30;;;2.10;;
13683;SDS011;6914;53.552;9.908;2022-10-16T02:29:30;11.63;;;2.37;;
13683;SDS011;6914;53.552;9.908;2022-10-16T02:32:02;3.07;;;2.77;;
13683;SDS011;6914;53.552;9.908;2022-10-16T02:34:31;10.40;;;2.57;;
13683;SDS011;6914;53.552;9.908;2022-10-16T02:36:59;5.27;;;2.20;;
13683;SDS011;6914;53.552;9.908;2022-10-16T02:39:30;4.83;;;2.20;;
13683;SDS011;6914;53.552;9.908;2022-10-16T02:41:57;4.30;;;2.10;;
13683;SDS011;6914;53.552;9.908;2022-10-16T02:44:24;4.67;;;2.20;;
13683;SDS011;6914;53.552;9.908;2022-10-16T02:46:51;4.20;;;1.97;;
13683;SDS011;6914;53.552;9.908;2022-10-16T02:49:19;10.33;;;1.93;;
13683;SDS011;6914;53.552;9.908;2022-10-16T02:51:46;2.07;;;1.93;;
13683;SDS011;6914;53.552;9.908;2022-10-16T02:54:13;10.63;;;2.40;;
13683;SDS011;6914;53.552;9.908;2022-10-16T02:56:40;6.90;;;2.67;;
13683;SDS011;6914;53.552;9.908;2022-10-16T02:59:06;2.63;;;2.40;;
13683;SDS011;6914;53.552;9.908;2022-10-16T03:01:33;6.30;;;2.30;;
13683;SDS011;6914;53.552;9.908;2022-10-16T03:04:00;4.20;;;2.40;;
13683;SDS011;6914;53.552;9.908;2022-10-16T03:06:28;7.63;;;2.03;;
13683;SDS011;6914;53.552;9.908;2022-10-16T03:08:55;4.47;;;2.33;;
13683;SDS011;6914;53.552;9.908;2022-10-16T03:11:22;3.77;;;2.50;;
13683;SDS011;6914;53.552;9.908;2022-10-16T03:13:49;2.20;;;2.00;;
13683;SDS011;6914;53.552;9.908;2022-10-16T03:16:16;3.07;;;2.53;;
13683;SDS011;6914;53.552;9.908;2022-10-16T03:18:42;3.37;;;2.27;;
13683;SDS011;6914;53.552;9.908;2022-10-16T03:21:09;1.97;;;1.63;;
13683;SDS011;6914;53.552;9.908;2022-10-16T03:23:37;4.70;;;2.50;;
13683;SDS011;6914;53.552;9.908;2022-10-16T03:26:04;2.93;;;1.87;;
13683;SDS011;6914;53.552;9.908;2022-10-16T03:28:31;3.17;;;1.90;;
13683;SDS011;6914;53.552;9.908;2022-10-16T03:30:58;2.27;;;1.90;;
13683;SDS011;6914;53.552;9.908;2022-10-16T03:33:25;3.17;;;2.43;;
13683;SDS011;6914;53.552;9.908;2022-10-16T03:35:52;5.63;;;1.80;;
13683;SDS011;6914;53.552;9.908;2022-10-16T03:38:19;5.50;;;2.13;;
13683;SDS011;6914;53.552;9.908;2022-10-16T03:40:47;2.37;;;2.00;;
13683;SDS011;6914;53.552;9.908;2022-10-16T03:43:14;4.33;;;2.70;;
13683;SDS011;6914;53.552;9.908;2022-10-16T03:45:41;2.73;;;2.30;;
13683;SDS011;6914;53.552;9.908;2022-10-16T03:48:08;3.93;;;1.87;;
13683;SDS011;6914;53.552;9.908;2022-10-16T03:50:35;11.20;;;3.03;;
13683;SDS011;6914;53.552;9.908;2022-10-16T03:53:02;2.33;;;2.13;;
13683;SDS011;6914;53.552;9.908;2022-10-16T03:55:30;13.83;;;2.30;;
13683;SDS011;6914;53.552;9.908;2022-10-16T03:57:58;5.73;;;2.20;;
13683;SDS011;6914;53.552;9.908;2022-10-16T04:00:25;8.23;;;2.50;;
13683;SDS011;6914;53.552;9.908;2022-10-16T04:02:52;2.83;;;2.50;;
13683;SDS011;6914;53.552;9.908;2022-10-16T04:05:19;5.83;;;2.37;;
13683;SDS011;6914;53.552;9.908;2022-10-16T04:07:46;1.97;;;1.83;;
13683;SDS011;6914;53.552;9.908;2022-10-16T04:10:12;4.10;;;2.10;;
13683;SDS011;6914;53.552;9.908;2022-10-16T04:12:39;4.50;;;2.27;;
13683;SDS011;6914;53.552;9.908;2022-10-16T04:15:08;4.73;;;2.13;;
13683;SDS011;6914;53.552;9.908;2022-10-16T04:17:35;7.43;;;2.23;;
13683;SDS011;6914;53.552;9.908;2022-10-16T04:20:02;5.03;;;1.30;;
13683;SDS011;6914;53.552;9.908;2022-10-16T04:22:30;3.13;;;2.07;;
13683;SDS011;6914;53.552;9.908;2022-10-16T04:24:57;2.07;;;1.93;;
13683;SDS011;6914;53.552;9.908;2022-10-16T04:27:24;4.13;;;1.87;;
13683;SDS011;6914;53.552;9.908;2022-10-16T04:29:50;4.40;;;2.20;;
13683;SDS011;6914;53.552;9.908;2022-10-16T04:32:19;4.50;;;2.20;;
13683;SDS011;6914;53.552;9.908;2022-10-16T04:34:46;3.10;;;2.00;;
13683;SDS011;6914;53.552;9.908;2022-10-16T04:37:12;4.13;;;2.50;;
13683;SDS011;6914;53.552;9.908;2022-10-16T04:39:39;2.77;;;2.30;;
13683;SDS011;6914;53.552;9.908;2022-10-16T04:42:06;2.73;;;1.90;;
13683;SDS011;6914;53.552;9.908;2022-10-16T04:44:33;13.83;;;2.87;;
13683;SDS011;6914;53.552;9.908;2022-10-16T04:47:00;2.00;;;1.90;;
13683;SDS011;6914;53.552;9.908;2022-10-16T04:49:28;4.10;;;3.17;;
13683;SDS011;6914;53.552;9.908;2022-10-16T04:51:55;5.13;;;2.30;;
13683;SDS011;6914;53.552;9.908;2022-10-16T04:54:21;6.90;;;2.87;;
13683;SDS011;6914;53.552;9.908;2022-10-16T04:56:48;6.53;;;2.70;;
13683;SDS011;6914;53.552;9.908;2022-10-16T04:59:17;28.03;;;3.87;;
13683;SDS011;6914;53.552;9.908;2022-10-16T05:01:44;8.73;;;3.27;;
13683;SDS011;6914;53.552;9.908;2022-10-16T05:04:11;3.13;;;2.90;;
13683;SDS011;6914;53.552;9.908;2022-10-16T05:06:41;3.37;;;3.07;;
13683;SDS011;6914;53.552;9.908;2022-10-16T05:09:08;4.40;;;4.00;;
13683;SDS011;6914;53.552;9.908;2022-10-16T05:11:35;10.10;;;3.90;;
13683;SDS011;6914;53.552;9.908;2022-10-16T05:14:02;7.00;;;3.20;;
13683;SDS011;6914;53.552;9.908;2022-10-16T05:16:29;4.90;;;3.70;;
13683;SDS011;6914;53.552;9.908;2022-10-16T05:18:56;4.77;;;3.50;;
13683;SDS011;6914;53.552;9.908;2022-10-16T05:21:23;9.13;;;3.80;;
13683;SDS011;6914;53.552;9.908;2022-10-16T05:23:51;4.67;;;4.30;;
13683;SDS011;6914;53.552;9.908;2022-10-16T05:26:19;5.53;;;3.40;;
13683;SDS011;6914;53.552;9.908;2022-10-16T05:28:46;8.93;;;4.53;;
13683;SDS011;6914;53.552;9.908;2022-10-16T05:31:13;4.10;;;3.77;;
13683;SDS011;6914;53.552;9.908;2022-10-16T05:33:40;4.27;;;3.97;;
13683;SDS011;6914;53.552;9.908;2022-10-16T05:36:09;4.93;;;3.60;;
13683;SDS011;6914;53.552;9.908;2022-10-16T05:38:36;8.27;;;4.30;;
13683;SDS011;6914;53.552;9.908;2022-10-16T05:41:05;5.00;;;4.07;;
13683;SDS011;6914;53.552;9.908;2022-10-16T05:43:32;9.33;;;4.17;;
13683;SDS011;6914;53.552;9.908;2022-10-16T05:46:00;4.43;;;3.60;;
13683;SDS011;6914;53.552;9.908;2022-10-16T05:48:27;7.33;;;3.67;;
13683;SDS011;6914;53.552;9.908;2022-10-16T05:50:58;5.00;;;2.97;;
13683;SDS011;6914;53.552;9.908;2022-10-16T05:53:26;5.80;;;3.70;;
13683;SDS011;6914;53.552;9.908;2022-10-16T05:55:53;6.60;;;3.60;;
13683;SDS011;6914;53.552;9.908;2022-10-16T05:58:22;8.80;;;3.00;;
13683;SDS011;6914;53.552;9.908;2022-10-16T06:00:52;9.77;;;3.20;;
13683;SDS011;6914;53.552;9.908;2022-10-16T06:03:20;7.83;;;2.50;;
13683;SDS011;6914;53.552;9.908;2022-10-16T06:05:47;8.97;;;3.67;;
13683;SDS011;6914;53.552;9.908;2022-10-16T06:08:14;4.43;;;3.00;;
13683;SDS011;6914;53.552;9.908;2022-10-16T06:10:41;5.63;;;3.07;;
13683;SDS011;6914;53.552;9.908;2022-10-16T06:13:08;8.47;;;3.37;;
13683;SDS011;6914;53.552;9.908;2022-10-16T06:15:36;5.30;;;2.80;;
13683;SDS011;6914;53.552;9.908;2022-10-16T06:18:04;4.30;;;3.50;;
13683;SDS011;6914;53.552;9.908;2022-10-16T06:20:31;4.33;;;2.63;;
13683;SDS011;6914;53.552;9.908;2022-10-16T06:22:57;7.13;;;3.07;;
13683;SDS011;6914;53.552;9.908;2022-10-16T06:25:24;3.33;;;3.03;;
13683;SDS011;6914;53.552;9.908;2022-10-16T06:27:51;3.10;;;2.80;;
13683;SDS011;6914;53.552;9.908;2022-10-16T06:30:18;4.40;;;3.00;;
13683;SDS011;6914;53.552;9.908;2022-10-16T06:32:46;12.50;;;2.93;;
13683;SDS011;6914;53.552;9.908;2022-10-16T06:35:13;4.90;;;4.00;;
13683;SDS011;6914;53.552;9.908;2022-10-16T06:37:40;4.33;;;3.13;;
13683;SDS011;6914;53.552;9.908;2022-10-16T06:40:07;3.67;;;2.93;;
13683;SDS011;6914;53.552;9.908;2022-10-16T06:42:34;4.03;;;3.63;;
13683;SDS011;6914;53.552;9.908;2022-10-16T06:45:01;6.77;;;3.63;;
13683;SDS011;6914;53.552;9.908;2022-10-16T06:47:28;11.20;;;3.70;;
13683;SDS011;6914;53.552;9.908;2022-10-16T06:49:56;4.50;;;3.70;;
13683;SDS011;6914;53.552;9.908;2022-10-16T06:52:23;4.73;;;3.13;;
13683;SDS011;6914;53.552;9.908;2022-10-16T06:54:50;3.73;;;3.40;;
13683;SDS011;6914;53.552;9.908;2022-10-16T06:57:17;5.20;;;3.90;;
13683;SDS011;6914;53.552;9.908;2022-10-16T06:59:43;5.73;;;3.63;;
13683;SDS011;6914;53.552;9.908;2022-10-16T07:02:10;8.43;;;4.03;;
13683;SDS011;6914;53.552;9.908;2022-10-16T07:04:37;3.90;;;3.60;;
13683;SDS011;6914;53.552;9.908;2022-10-16T07:07:05;5.87;;;3.70;;
13683;SDS011;6914;53.552;9.908;2022-10-16T07:09:32;4.40;;;4.10;;
13683;SDS011;6914;53.552;9.908;2022-10-16T07:11:59;7.80;;;4.47;;
13683;SDS011;6914;53.552;9.908;2022-10-16T07:14:26;3.97;;;3.20;;
13683;SDS011;6914;53.552;9.908;2022-10-16T07:16:53;7.47;;;4.00;;
13683;SDS011;6914;53.552;9.908;2022-10-16T07:19:20;5.10;;;3.97;;
13683;SDS011;6914;53.552;9.908;2022-10-16T07:21:47;8.37;;;4.60;;
13683;SDS011;6914;53.552;9.908;2022-10-16T07:24:15;4.93;;;4.50;;
13683;SDS011;6914;53.552;9.908;2022-10-16T07:26:43;6.87;;;4.80;;
13683;SDS011;6914;53.552;9.908;2022-10-16T07:29:12;4.80;;;4.40;;
13683;SDS011;6914;53.552;9.908;2022-10-16T07:31:40;6.57;;;3.93;;
13683;SDS011;6914;53.552;9.908;2022-10-16T07:34:07;3.90;;;3.70;;
13683;SDS011;6914;53.552;9.908;2022-10-16T07:36:35;4.43;;;3.80;;
13683;SDS011;6914;53.552;9.908;2022-10-16T07:39:02;5.67;;;3.87;;
13683;SDS011;6914;53.552;9.908;2022-10-16T07:41:31;4.13;;;3.30;;
13683;SDS011;6914;53.552;9.908;2022-10-16T07:44:01;6.03;;;4.03;;
13683;SDS011;6914;53.552;9.908;2022-10-16T07:46:29;6.20;;;3.73;;
13683;SDS011;6914;53.552;9.908;2022-10-16T07:48:56;4.50;;;2.80;;
13683;SDS011;6914;53.552;9.908;2022-10-16T07:51:23;5.90;;;3.90;;
13683;SDS011;6914;53.552;9.908;2022-10-16T07:53:51;8.30;;;3.93;;
13683;SDS011;6914;53.552;9.908;2022-10-16T07:56:19;7.43;;;4.03;;
13683;SDS011;6914;53.552;9.908;2022-10-16T07:58:48;5.90;;;3.90;;
13683;SDS011;6914;53.552;9.908;2022-10-16T08:01:16;3.77;;;3.47;;
13683;SDS011;6914;53.552;9.908;2022-10-16T08:03:44;15.67;;;5.63;;
13683;SDS011;6914;53.552;9.908;2022-10-16T08:06:12;6.73;;;4.63;;
13683;SDS011;6914;53.552;9.908;2022-10-16T08:08:38;4.40;;;4.00;;
13683;SDS011;6914;53.552;9.908;2022-10-16T08:11:05;4.30;;;4.00;;
13683;SDS011;6914;53.552;9.908;2022-10-16T08:13:33;5.17;;;4.57;;
13683;SDS011;6914;53.552;9.908;2022-10-16T08:16:01;10.23;;;4.60;;
13683;SDS011;6914;53.552;9.908;2022-10-16T08:18:32;4.87;;;4.27;;
13683;SDS011;6914;53.552;9.908;2022-10-16T08:20:59;3.90;;;3.60;;
13683;SDS011;6914;53.552;9.908;2022-10-16T08:23:27;4.33;;;3.83;;
13683;SDS011;6914;53.552;9.908;2022-10-16T08:25:54;3.97;;;3.73;;
13683;SDS011;6914;53.552;9.908;2022-10-16T08:28:22;7.80;;;4.77;;
13683;SDS011;6914;53.552;9.908;2022-10-16T08:30:49;3.97;;;3.57;;
13683;SDS011;6914;53.552;9.908;2022-10-16T08:33:17;4.50;;;3.30;;
13683;SDS011;6914;53.552;9.908;2022-10-16T08:35:50;8.17;;;4.70;;
13683;SDS011;6914;53.552;9.908;2022-10-16T08:38:18;3.60;;;3.37;;
13683;SDS011;6914;53.552;9.908;2022-10-16T08:40:45;4.13;;;3.80;;
13683;SDS011;6914;53.552;9.908;2022-10-16T08:43:20;4.80;;;3.83;;
13683;SDS011;6914;53.552;9.908;2022-10-16T08:46:11;3.40;;;3.13;;
13683;SDS011;6914;53.552;9.908;2022-10-16T08:48:49;2.57;;;2.47;;
13683;SDS011;6914;53.552;9.908;2022-10-16T08:51:19;4.00;;;2.20;;
13683;SDS011;6914;53.552;9.908;2022-10-16T08:53:49;3.43;;;2.80;;
13683;SDS011;6914;53.552;9.908;2022-10-16T08:56:19;2.60;;;2.30;;
13683;SDS011;6914;53.552;9.908;2022-10-16T08:58:47;3.23;;;2.73;;
13683;SDS011;6914;53.552;9.908;2022-10-16T09:01:15;8.47;;;2.67;;
13683;SDS011;6914;53.552;9.908;2022-10-16T09:03:50;4.53;;;2.10;;
13683;SDS011;6914;53.552;9.908;2022-10-16T09:06:29;2.40;;;2.30;;
13683;SDS011;6914;53.552;9.908;2022-10-16T09:09:12;2.50;;;2.10;;
13683;SDS011;6914;53.552;9.908;2022-10-16T09:12:02;2.80;;;1.90;;
13683;SDS011;6914;53.552;9.908;2022-10-16T09:14:38;3.07;;;2.27;;
13683;SDS011;6914;53.552;9.908;2022-10-16T09:17:18;1.70;;;1.60;;
13683;SDS011;6914;53.552;9.908;2022-10-16T09:19:56;3.83;;;1.90;;
13683;SDS011;6914;53.552;9.908;2022-10-16T09:22:33;7.47;;;1.93;;
13683;SDS011;6914;53.552;9.908;2022-10-16T09:25:00;4.70;;;1.60;;
13683;SDS011;6914;53.552;9.908;2022-10-16T09:27:37;2.80;;;1.83;;
13683;SDS011;6914;53.552;9.908;2022-10-16T09:30:10;1.60;;;1.47;;
13683;SDS011;6914;53.552;9.908;2022-10-16T09:32:38;1.43;;;1.10;;
13683;SDS011;6914;53.552;9.908;2022-10-16T09:35:10;6.10;;;1.70;;
13683;SDS011;6914;53.552;9.908;2022-10-16T09:37:40;1.07;;;1.00;;
13683;SDS011;6914;53.552;9.908;2022-10-16T09:40:11;2.07;;;1.20;;
13683;SDS011;6914;53.552;9.908;2022-10-16T09:42:39;2.30;;;1.33;;
13683;SDS011;6914;53.552;9.908;2022-10-16T09:45:19;2.00;;;1.50;;
13683;SDS011;6914;53.552;9.908;2022-10-16T09:47:47;2.37;;;1.50;;
13683;SDS011;6914;53.552;9.908;2022-10-16T09:50:21;1.73;;;1.30;;
13683;SDS011;6914;53.552;9.908;2022-10-16T09:52:51;3.40;;;1.60;;
13683;SDS011;6914;53.552;9.908;2022-10-16T09:55:29;2.83;;;1.13;;
13683;SDS011;6914;53.552;9.908;2022-10-16T09:57:56;3.37;;;1.40;;
13683;SDS011;6914;53.552;9.908;2022-10-16T10:00:23;2.83;;;1.17;;
13683;SDS011;6914;53.552;9.908;2022-10-16T10:02:50;1.80;;;1.37;;
13683;SDS011;6914;53.552;9.908;2022-10-16T10:05:19;1.60;;;1.50;;
13683;SDS011;6914;53.552;9.908;2022-10-16T10:07:53;1.53;;;1.10;;
13683;SDS011;6914;53.552;9.908;2022-10-16T10:10:23;2.80;;;1.43;;
13683;SDS011;6914;53.552;9.908;2022-10-16T10:12:52;5.37;;;1.60;;
13683;SDS011;6914;53.552;9.908;2022-10-16T10:15:21;7.00;;;1.80;;
13683;SDS011;6914;53.552;9.908;2022-10-16T10:17:50;4.13;;;1.73;;
13683;SDS011;6914;53.552;9.908;2022-10-16T10:20:23;2.20;;;1.63;;
13683;SDS011;6914;53.552;9.908;2022-10-16T10:22:52;4.63;;;1.70;;
13683;SDS011;6914;53.552;9.908;2022-10-16T10:25:23;3.40;;;1.30;;
13683;SDS011;6914;53.552;9.908;2022-10-16T10:28:07;4.30;;;1.37;;
13683;SDS011;6914;53.552;9.908;2022-10-16T10:30:56;4.77;;;1.50;;
13683;SDS011;6914;53.552;9.908;2022-10-16T10:33:31;2.40;;;1.10;;
13683;SDS011;6914;53.552;9.908;2022-10-16T10:36:11;3.40;;;1.43;;
13683;SDS011;6914;53.552;9.908;2022-10-16T10:38:49;2.67;;;1.20;;
13683;SDS011;6914;53.552;9.908;2022-10-16T10:41:24;12.07;;;1.70;;
13683;SDS011;6914;53.552;9.908;2022-10-16T10:44:11;4.93;;;1.23;;
13683;SDS011;6914;53.552;9.908;2022-10-16T10:46:48;1.00;;;0.90;;
13683;SDS011;6914;53.552;9.908;2022-10-16T10:49:22;2.83;;;1.00;;
13683;SDS011;6914;53.552;9.908;2022-10-16T10:52:09;3.07;;;1.00;;
13683;SDS011;6914;53.552;9.908;2022-10-16T10:54:48;6.83;;;1.40;;
13683;SDS011;6914;53.552;9.908;2022-10-16T10:57:21;3.77;;;1.20;;
13683;SDS011;6914;53.552;9.908;2022-10-16T10:59:54;1.17;;;1.07;;
13683;SDS011;6914;53.552;9.908;2022-10-16T11:02:31;7.57;;;1.30;;
13683;SDS011;6914;53.552;9.908;2022-10-16T11:05:15;4.00;;;1.47;;
13683;SDS011;6914;53.552;9.908;2022-10-16T11:07:58;5.27;;;1.43;;
13683;SDS011;6914;53.552;9.908;2022-10-16T11:10:28;2.77;;;1.07;;
13683;SDS011;6914;53.552;9.908;2022-10-16T11:13:10;2.20;;;0.93;;
13683;SDS011;6914;53.552;9.908;2022-10-16T11:15:46;4.30;;;1.07;;
13683;SDS011;6914;53.552;9.908;2022-10-16T11:18:18;2.37;;;0.80;;
13683;SDS011;6914;53.552;9.908;2022-10-16T11:20:49;3.57;;;1.10;;
13683;SDS011;6914;53.552;9.908;2022-10-16T11:23:23;3.33;;;1.23;;
13683;SDS011;6914;53.552;9.908;2022-10-16T11:25:54;3.10;;;1.00;;
13683;SDS011;6914;53.552;9.908;2022-10-16T11:28:26;4.53;;;1.17;;
13683;SDS011;6914;53.552;9.908;2022-10-16T11:31:00;3.47;;;0.93;;
13683;SDS011;6914;53.552;9.908;2022-10-16T11:33:32;12.33;;;1.43;;
13683;SDS011;6914;53.552;9.908;2022-10-16T11:36:05;4.50;;;0.90;;
13683;SDS011;6914;53.552;9.908;2022-10-16T11:38:41;3.03;;;1.13;;
13683;SDS011;6914;53.552;9.908;2022-10-16T11:41:24;6.93;;;1.10;;
13683;SDS011;6914;53.552;9.908;2022-10-16T11:44:00;2.60;;;1.07;;
13683;SDS011;6914;53.552;9.908;2022-10-16T11:46:36;5.00;;;1.30;;
13683;SDS011;6914;53.552;9.908;2022-10-16T11:49:08;5.20;;;1.50;;
13683;SDS011;6914;53.552;9.908;2022-10-16T11:51:40;4.23;;;1.17;;
13683;SDS011;6914;53.552;9.908;2022-10-16T11:54:16;5.17;;;1.40;;
13683;SDS011;6914;53.552;9.908;2022-10-16T11:56:48;7.37;;;1.60;;
13683;SDS011;6914;53.552;9.908;2022-10-16T11:59:20;18.93;;;1.40;;
13683;SDS011;6914;53.552;9.908;2022-10-16T12:01:56;5.23;;;1.30;;
13683;SDS011;6914;53.552;9.908;2022-10-16T12:04:43;13.40;;;1.53;;
13683;SDS011;6914;53.552;9.908;2022-10-16T12:07:21;4.87;;;1.30;;
13683;SDS011;6914;53.552;9.908;2022-10-16T12:09:55;2.50;;;1.00;;
13683;SDS011;6914;53.552;9.908;2022-10-16T12:12:25;2.40;;;1.10;;
13683;SDS011;6914;53.552;9.908;2022-10-16T12:14:59;3.80;;;1.17;;
13683;SDS011;6914;53.552;9.908;2022-10-16T12:17:27;7.60;;;1.20;;
13683;SDS011;6914;53.552;9.908;2022-10-16T12:20:12;3.93;;;1.10;;
13683;SDS011;6914;53.552;9.908;2022-10-16T12:22:47;5.13;;;1.33;;
13683;SDS011;6914;53.552;9.908;2022-10-16T12:25:21;7.70;;;1.73;;
13683;SDS011;6914;53.552;9.908;2022-10-16T12:30:52;8.90;;;2.00;;
13683;SDS011;6914;53.552;9.908;2022-10-16T12:33:21;2.80;;;1.30;;
13683;SDS011;6914;53.552;9.908;2022-10-16T12:35:50;4.97;;;1.10;;
13683;SDS011;6914;53.552;9.908;2022-10-16T12:38:18;4.13;;;1.43;;
13683;SDS011;6914;53.552;9.908;2022-10-16T12:40:54;1.73;;;1.10;;
13683;SDS011;6914;53.552;9.908;2022-10-16T12:43:28;8.90;;;2.70;;
13683;SDS011;6914;53.552;9.908;2022-10-16T12:46:21;1.83;;;1.10;;
13683;SDS011;6914;53.552;9.908;2022-10-16T12:49:17;1.83;;;1.03;;
13683;SDS011;6914;53.552;9.908;2022-10-16T12:51:49;6.63;;;1.17;;
13683;SDS011;6914;53.552;9.908;2022-10-16T12:54:16;2.80;;;1.07;;
13683;SDS011;6914;53.552;9.908;2022-10-16T12:56:50;3.80;;;1.20;;
13683;SDS011;6914;53.552;9.908;2022-10-16T12:59:29;2.50;;;1.07;;
13683;SDS011;6914;53.552;9.908;2022-10-16T13:02:11;4.97;;;1.40;;
13683;SDS011;6914;53.552;9.908;2022-10-16T13:05:13;3.10;;;1.00;;
13683;SDS011;6914;53.552;9.908;2022-10-16T13:07:55;1.57;;;1.10;;
13683;SDS011;6914;53.552;9.908;2022-10-16T13:10:32;1.70;;;0.97;;
13683;SDS011;6914;53.552;9.908;2022-10-16T13:13:12;8.50;;;1.70;;
13683;SDS011;6914;53.552;9.908;2022-10-16T13:15:52;4.03;;;1.40;;
13683;SDS011;6914;53.552;9.908;2022-10-16T13:18:28;1.37;;;1.10;;
13683;SDS011;6914;53.552;9.908;2022-10-16T13:21:08;2.83;;;1.20;;
13683;SDS011;6914;53.552;9.908;2022-10-16T13:23:50;2.60;;;1.07;;
13683;SDS011;6914;53.552;9.908;2022-10-16T13:26:28;2.93;;;1.00;;
13683;SDS011;6914;53.552;9.908;2022-10-16T13:29:04;3.00;;;1.27;;
13683;SDS011;6914;53.552;9.908;2022-10-16T13:31:31;4.40;;;1.47;;
13683;SDS011;6914;53.552;9.908;2022-10-16T13:33:59;2.73;;;1.27;;
13683;SDS011;6914;53.552;9.908;2022-10-16T13:36:27;10.50;;;1.70;;
13683;SDS011;6914;53.552;9.908;2022-10-16T13:39:00;5.57;;;1.30;;
13683;SDS011;6914;53.552;9.908;2022-10-16T13:41:36;4.00;;;1.90;;
13683;SDS011;6914;53.552;9.908;2022-10-16T13:44:04;4.23;;;1.30;;
13683;SDS011;6914;53.552;9.908;2022-10-16T13:46:31;2.40;;;1.50;;
13683;SDS011;6914;53.552;9.908;2022-10-16T13:49:00;2.93;;;1.20;;
13683;SDS011;6914;53.552;9.908;2022-10-16T13:51:29;7.63;;;1.20;;
13683;SDS011;6914;53.552;9.908;2022-10-16T13:53:56;3.17;;;0.93;;
13683;SDS011;6914;53.552;9.908;2022-10-16T13:56:25;5.43;;;1.30;;
13683;SDS011;6914;53.552;9.908;2022-10-16T13:58:59;3.90;;;1.27;;
13683;SDS011;6914;53.552;9.908;2022-10-16T14:01:29;3.77;;;1.30;;
13683;SDS011;6914;53.552;9.908;2022-10-16T14:04:00;16.30;;;1.37;;
13683;SDS011;6914;53.552;9.908;2022-10-16T14:06:31;3.60;;;1.37;;
13683;SDS011;6914;53.552;9.908;2022-10-16T14:08:59;5.50;;;1.30;;
13683;SDS011;6914;53.552;9.908;2022-10-16T14:11:30;8.77;;;1.30;;
13683;SDS011;6914;53.552;9.908;2022-10-16T14:13:58;6.23;;;1.73;;
13683;SDS011;6914;53.552;9.908;2022-10-16T14:16:26;2.40;;;1.20;;
13683;SDS011;6914;53.552;9.908;2022-10-16T14:18:56;2.20;;;1.10;;
13683;SDS011;6914;53.552;9.908;2022-10-16T14:21:26;2.50;;;1.23;;
13683;SDS011;6914;53.552;9.908;2022-10-16T14:23:53;5.23;;;1.37;;
13683;SDS011;6914;53.552;9.908;2022-10-16T14:26:22;1.43;;;1.00;;
13683;SDS011;6914;53.552;9.908;2022-10-16T14:29:02;4.67;;;1.17;;
13683;SDS011;6914;53.552;9.908;2022-10-16T14:31:38;2.97;;;1.30;;
13683;SDS011;6914;53.552;9.908;2022-10-16T14:36:52;4.10;;;1.40;;
13683;SDS011;6914;53.552;9.908;2022-10-16T14:39:20;6.40;;;1.70;;
13683;SDS011;6914;53.552;9.908;2022-10-16T14:41:48;7.27;;;2.43;;
13683;SDS011;6914;53.552;9.908;2022-10-16T14:44:18;3.43;;;1.30;;
13683;SDS011;6914;53.552;9.908;2022-10-16T14:46:50;2.70;;;1.10;;
13683;SDS011;6914;53.552;9.908;2022-10-16T14:49:17;15.20;;;1.73;;
13683;SDS011;6914;53.552;9.908;2022-10-16T14:51:46;4.83;;;1.47;;
13683;SDS011;6914;53.552;9.908;2022-10-16T14:54:14;2.43;;;1.20;;
13683;SDS011;6914;53.552;9.908;2022-10-16T14:56:43;1.33;;;1.20;;
13683;SDS011;6914;53.552;9.908;2022-10-16T14:59:14;8.93;;;1.13;;
13683;SDS011;6914;53.552;9.908;2022-10-16T15:01:45;5.17;;;1.40;;
13683;SDS011;6914;53.552;9.908;2022-10-16T15:04:15;20.43;;;1.87;;
13683;SDS011;6914;53.552;9.908;2022-10-16T15:06:42;5.43;;;1.70;;
13683;SDS011;6914;53.552;9.908;2022-10-16T15:09:09;7.03;;;1.90;;
13683;SDS011;6914;53.552;9.908;2022-10-16T15:11:36;5.00;;;1.27;;
13683;SDS011;6914;53.552;9.908;2022-10-16T15:14:03;6.27;;;1.20;;
13683;SDS011;6914;53.552;9.908;2022-10-16T15:16:31;2.30;;;0.93;;
13683;SDS011;6914;53.552;9.908;2022-10-16T15:18:58;4.83;;;1.67;;
13683;SDS011;6914;53.552;9.908;2022-10-16T15:21:27;11.30;;;1.60;;
13683;SDS011;6914;53.552;9.908;2022-10-16T15:23:58;11.60;;;1.70;;
13683;SDS011;6914;53.552;9.908;2022-10-16T15:26:26;8.17;;;1.27;;